Terminal Aerodrome Forecast
Issued by NWS

Home | Current Version | Previous Version | Text Only | Print | Product List | Glossary On
Versions: 1 2 3 4 5 6 7 8 9 10 11 12 13 14
000
FTUS43 KMPX 031120
TAFRNH
TAF
KRNH 031120Z 0312/0412 16012KT P6SM OVC040
     FM031300 17011KT P6SM VCSH BKN020 OVC040
     FM032000 18008KT P6SM -SHRA VCTS BKN025 BKN050CB
     FM040100 19004KT 6SM BR VCSH SCT020 BKN040
     FM040500 22004KT 4SM BR OVC018
     FM040800 VRB03KT 2SM BR OVC007=

USA.gov is the U.S. government's official web portal to all federal, state and local government web resources and services.